DRZR

Zinder Airport

Zinder, Niger
METAR DRZR 161800Z 12004KT CAVOK 25/M12 Q1014
Observed Flight Rules
Jan-16 @ 18:00 UTC (53 minutes ago) Visual Flight Rules
Wind Visibility Clouds
120° at 4 knots 10,000+ meters
  • Clear skies
Temperatures Readings
Current 25°C / 77°F
Dewpoint -12°C / 10°F
Humidity 8%
Altimeter 29.94" Hg
Pressure 1013.92 hPa
Elevation 453
METAR DRZR 161800Z 12004KT CAVOK 25/M12 Q1014
Observed Flight Rules
Jan-16 @ 18:00 UTC
(53 minutes ago)
VFR
Wind Visibility
120° at 4 knots 10,000+ meters
Clouds
  • Clear skies
Temperature Dewpoint
25°C / 77°F -12°C / 10°F
Humidity Altimeter Pressure
8% 29.94" Hg 1013.92 hPa